createdAt,value
2022-11-13T00:01:24.915Z,43.15
2022-11-13T00:03:53.079Z,43.63
2022-11-13T00:06:20.181Z,44.20
2022-11-13T00:08:52.789Z,48.03
2022-11-13T00:11:22.043Z,44.30
2022-11-13T00:13:49.423Z,45.53
2022-11-13T00:16:18.851Z,48.03
2022-11-13T00:18:50.653Z,47.03
2022-11-13T00:23:50.469Z,46.28
2022-11-13T00:26:27.522Z,53.55
2022-11-13T00:28:56.631Z,44.65
2022-11-13T00:31:23.743Z,52.00
2022-11-13T00:36:39.841Z,51.63
2022-11-13T00:39:06.517Z,49.17
2022-11-13T00:41:33.244Z,48.28
2022-11-13T00:44:00.142Z,52.75
2022-11-13T00:46:27.007Z,52.13
2022-11-13T00:48:56.132Z,45.35
2022-11-13T00:51:22.938Z,47.95
2022-11-13T00:53:49.631Z,46.17
2022-11-13T00:56:16.360Z,46.55
2022-11-13T00:58:45.239Z,49.50
2022-11-13T01:01:17.789Z,47.90
2022-11-13T01:03:47.406Z,44.28
2022-11-13T01:06:26.660Z,50.45
2022-11-13T01:09:00.630Z,53.45
2022-11-13T01:11:29.393Z,48.25
2022-11-13T01:13:57.028Z,43.60
2022-11-13T01:16:28.181Z,43.95
2022-11-13T01:18:56.411Z,44.60
2022-11-13T01:21:25.886Z,52.45
2022-11-13T01:23:53.755Z,45.40
2022-11-13T01:26:27.462Z,47.85
2022-11-13T01:28:55.588Z,47.83
2022-11-13T01:31:25.103Z,52.45
2022-11-13T01:33:52.335Z,48.65
2022-11-13T01:36:21.803Z,48.92
2022-11-13T01:38:50.524Z,45.60
2022-11-13T01:41:31.090Z,46.10
2022-11-13T01:43:58.588Z,49.80
2022-11-13T01:46:45.557Z,43.40
2022-11-13T01:49:12.197Z,44.22
2022-11-13T01:51:40.140Z,45.20
2022-11-13T01:54:19.043Z,39.55
2022-11-13T01:56:46.093Z,44.90
2022-11-13T01:59:27.968Z,44.17
2022-11-13T02:04:25.575Z,42.90
2022-11-13T02:06:59.221Z,44.88
2022-11-13T02:09:33.548Z,44.17
2022-11-13T02:12:00.849Z,38.97
2022-11-13T02:14:29.465Z,39.95
2022-11-13T02:17:00.118Z,40.80
2022-11-13T02:19:31.465Z,41.30
2022-11-13T02:22:16.872Z,42.03
2022-11-13T02:24:47.884Z,39.75
2022-11-13T02:27:45.349Z,37.08
2022-11-13T02:30:32.183Z,46.22
2022-11-13T02:32:59.614Z,36.10
2022-11-13T02:35:33.398Z,39.50
2022-11-13T02:38:04.547Z,34.88
2022-11-13T02:40:32.650Z,40.00
2022-11-13T02:43:01.532Z,34.88
2022-11-13T02:45:28.310Z,35.20
2022-11-13T02:47:55.057Z,37.85
2022-11-13T02:50:21.866Z,39.58
2022-11-13T02:52:50.843Z,36.38
2022-11-13T02:55:18.032Z,36.63
2022-11-13T02:57:44.736Z,34.88
2022-11-13T03:00:14.235Z,36.97
2022-11-13T03:02:41.433Z,34.33
2022-11-13T03:05:13.650Z,35.03
2022-11-13T03:07:41.493Z,33.25
2022-11-13T03:10:09.857Z,35.03
2022-11-13T03:12:41.411Z,31.92
2022-11-13T03:15:09.069Z,32.53
2022-11-13T03:17:35.897Z,31.75
2022-11-13T03:20:02.763Z,32.95
2022-11-13T03:22:31.619Z,30.88
2022-11-13T03:25:00.595Z,28.80
2022-11-13T03:27:27.333Z,30.60
2022-11-13T03:29:54.021Z,31.77
2022-11-13T03:32:23.164Z,28.30
2022-11-13T03:34:50.105Z,31.45
2022-11-13T03:37:16.868Z,30.77
2022-11-13T03:39:43.545Z,30.45
2022-11-13T03:42:10.238Z,29.75
2022-11-13T03:44:37.032Z,28.90
2022-11-13T03:47:06.144Z,25.20
2022-11-13T03:49:35.137Z,30.38
2022-11-13T03:52:01.889Z,27.90
2022-11-13T03:54:28.646Z,27.98
2022-11-13T03:56:57.608Z,27.48
2022-11-13T03:59:24.377Z,27.88
2022-11-13T04:01:53.366Z,27.17
2022-11-13T04:04:20.319Z,25.88
2022-11-13T04:06:47.047Z,25.10
2022-11-13T04:09:16.161Z,26.40
2022-11-13T04:11:45.022Z,25.20
2022-11-13T04:14:14.034Z,26.10
2022-11-13T04:16:43.240Z,24.13
2022-11-13T04:19:12.395Z,23.05
2022-11-13T04:21:39.303Z,22.55
2022-11-13T04:24:06.448Z,23.83
2022-11-13T04:26:35.345Z,22.88
2022-11-13T04:29:02.038Z,22.25
2022-11-13T04:31:28.776Z,23.08
2022-11-13T04:33:55.643Z,22.00
2022-11-13T04:36:22.312Z,22.65
2022-11-13T04:38:51.595Z,21.50
2022-11-13T04:41:36.742Z,21.52
2022-11-13T04:44:05.688Z,23.50
2022-11-13T04:46:32.373Z,24.10
2022-11-13T04:48:59.088Z,22.45
2022-11-13T04:51:25.790Z,22.52
2022-11-13T04:53:52.734Z,24.98
2022-11-13T04:56:19.417Z,22.85
2022-11-13T04:58:46.146Z,22.92
2022-11-13T05:01:12.942Z,21.17
2022-11-13T05:03:39.652Z,22.30
2022-11-13T05:06:08.678Z,22.13
2022-11-13T05:08:35.999Z,23.08
2022-11-13T05:11:03.798Z,23.02
2022-11-13T05:13:34.657Z,22.60
2022-11-13T05:16:06.036Z,21.80
2022-11-13T05:18:34.253Z,21.48
2022-11-13T05:21:03.966Z,22.75
2022-11-13T05:23:30.885Z,20.65
2022-11-13T05:26:09.737Z,21.08
2022-11-13T05:28:37.408Z,21.83
2022-11-13T05:31:12.443Z,20.67
2022-11-13T05:33:40.446Z,20.88
2022-11-13T05:36:12.616Z,18.75
2022-11-13T05:38:42.244Z,20.42
2022-11-13T05:41:14.124Z,20.35
2022-11-13T05:43:41.511Z,20.10
2022-11-13T05:46:17.180Z,21.40
2022-11-13T05:48:46.798Z,20.60
2022-11-13T05:51:19.883Z,19.20
2022-11-13T05:53:46.891Z,19.95
2022-11-13T05:56:17.070Z,20.00
2022-11-13T05:58:46.708Z,22.23
2022-11-13T06:01:23.222Z,20.83
2022-11-13T06:03:50.797Z,20.23
2022-11-13T06:06:20.759Z,21.73
2022-11-13T06:08:48.726Z,22.45
2022-11-13T06:11:18.770Z,18.90
2022-11-13T06:13:46.371Z,18.08
2022-11-13T06:16:16.046Z,20.60
2022-11-13T06:18:46.155Z,20.75
2022-11-13T06:21:15.471Z,18.98
2022-11-13T06:23:44.488Z,20.02
2022-11-13T06:26:17.534Z,21.17
2022-11-13T06:28:44.330Z,19.83
2022-11-13T06:31:16.132Z,18.40
2022-11-13T06:36:15.787Z,20.20
2022-11-13T06:38:43.831Z,18.42
2022-11-13T06:41:12.755Z,21.90
2022-11-13T06:43:40.000Z,19.63
2022-11-13T06:46:11.494Z,19.35
2022-11-13T06:48:40.623Z,18.50
2022-11-13T06:51:11.832Z,19.48
2022-11-13T06:53:38.512Z,20.90
2022-11-13T06:56:06.530Z,17.35
2022-11-13T06:58:33.858Z,19.92
2022-11-13T07:01:12.726Z,20.10
2022-11-13T07:03:40.253Z,18.48
2022-11-13T07:06:11.788Z,19.02
2022-11-13T07:08:38.532Z,19.40
2022-11-13T07:11:07.689Z,19.17
2022-11-13T07:13:36.560Z,19.13
2022-11-13T07:16:15.928Z,21.27
2022-11-13T07:18:43.429Z,19.75
2022-11-13T07:21:13.383Z,18.90
2022-11-13T07:23:43.609Z,20.85
2022-11-13T07:26:13.757Z,20.30
2022-11-13T07:28:40.585Z,19.48
2022-11-13T07:31:10.710Z,20.80
2022-11-13T07:33:37.590Z,21.25
2022-11-13T07:36:04.736Z,18.85
2022-11-13T07:38:31.989Z,18.85
2022-11-13T07:41:02.171Z,18.63
2022-11-13T07:43:32.068Z,18.65
2022-11-13T07:46:01.958Z,18.85
2022-11-13T07:48:29.300Z,17.20
2022-11-13T07:51:00.040Z,16.05
2022-11-13T07:53:26.751Z,17.77
2022-11-13T07:55:53.436Z,19.35
2022-11-13T07:58:20.211Z,17.75
2022-11-13T08:00:47.025Z,16.58
2022-11-13T08:03:15.924Z,19.55
2022-11-13T08:05:42.997Z,17.65
2022-11-13T08:08:12.562Z,19.77
2022-11-13T08:10:39.578Z,18.88
2022-11-13T08:13:09.256Z,17.52
2022-11-13T08:15:37.070Z,17.58
2022-11-13T08:18:04.863Z,18.63
2022-11-13T08:20:31.872Z,17.75
2022-11-13T08:23:02.328Z,15.63
2022-11-13T08:25:30.870Z,20.55
2022-11-13T08:27:58.086Z,17.15
2022-11-13T08:30:26.858Z,18.42
2022-11-13T08:32:55.987Z,17.40
2022-11-13T08:35:28.051Z,16.15
2022-11-13T08:38:02.602Z,16.40
2022-11-13T08:40:29.616Z,17.75
2022-11-13T08:43:00.677Z,16.60
2022-11-13T08:45:29.491Z,16.70
2022-11-13T08:48:03.481Z,19.30
2022-11-13T08:50:31.273Z,19.50
2022-11-13T08:52:59.388Z,16.38
2022-11-13T08:55:26.980Z,15.85
2022-11-13T08:57:53.943Z,15.07
2022-11-13T09:00:21.019Z,15.73
2022-11-13T09:02:47.706Z,16.27
2022-11-13T09:05:17.196Z,16.73
2022-11-13T09:07:46.711Z,20.67
2022-11-13T09:10:15.615Z,15.68
2022-11-13T09:12:44.955Z,17.27
2022-11-13T09:15:21.697Z,16.98
2022-11-13T09:17:51.075Z,17.23
2022-11-13T09:20:22.482Z,16.98
2022-11-13T09:22:55.813Z,15.68
2022-11-13T09:25:22.590Z,17.00
2022-11-13T09:27:57.243Z,18.05
2022-11-13T09:30:27.332Z,16.38
2022-11-13T09:32:58.639Z,16.70
2022-11-13T09:35:38.684Z,17.90
2022-11-13T09:38:11.724Z,16.40
2022-11-13T09:40:43.415Z,16.60
2022-11-13T09:43:34.419Z,16.13
2022-11-13T09:46:20.354Z,14.63
2022-11-13T09:48:53.204Z,14.90
2022-11-13T09:51:27.755Z,17.75
2022-11-13T09:53:55.004Z,17.17
2022-11-13T09:56:32.800Z,15.38
2022-11-13T09:59:27.674Z,15.30
2022-11-13T10:01:57.794Z,16.33
2022-11-13T10:04:50.226Z,16.15
2022-11-13T10:07:19.350Z,16.50
2022-11-13T10:10:00.356Z,15.80
2022-11-13T10:12:30.220Z,19.20
2022-11-13T10:15:02.282Z,14.38
2022-11-13T10:17:33.370Z,14.13
2022-11-13T10:20:05.031Z,17.63
2022-11-13T10:25:16.629Z,16.25
2022-11-13T10:28:00.278Z,14.88
2022-11-13T10:30:29.673Z,15.18
2022-11-13T10:33:04.425Z,14.95
2022-11-13T10:35:42.042Z,16.27
2022-11-13T10:38:22.339Z,17.58
2022-11-13T10:40:49.139Z,16.05
2022-11-13T10:43:20.544Z,16.13
2022-11-13T10:46:17.558Z,12.68
2022-11-13T10:48:44.288Z,15.30
2022-11-13T10:51:35.227Z,13.18
2022-11-13T10:54:34.670Z,13.70
2022-11-13T10:57:17.133Z,14.38
2022-11-13T10:59:46.452Z,16.25
2022-11-13T11:02:21.676Z,13.88
2022-11-13T11:04:50.086Z,15.13
2022-11-13T11:07:25.045Z,15.45
2022-11-13T11:09:52.047Z,13.95
2022-11-13T11:12:30.200Z,14.07
2022-11-13T11:14:59.479Z,12.68
2022-11-13T11:17:46.957Z,13.15
2022-11-13T11:20:41.204Z,13.00
2022-11-13T11:23:36.262Z,14.10
2022-11-13T11:26:21.263Z,11.70
2022-11-13T11:29:02.109Z,12.80
2022-11-13T11:31:35.643Z,12.15
2022-11-13T11:34:24.218Z,12.35
2022-11-13T11:36:59.677Z,11.45
2022-11-13T11:39:42.209Z,13.35
2022-11-13T11:42:38.659Z,13.20
2022-11-13T11:45:30.077Z,15.23
2022-11-13T11:47:58.998Z,12.07
2022-11-13T11:50:58.847Z,12.65
2022-11-13T11:53:54.368Z,11.75
2022-11-13T11:56:50.090Z,12.90
2022-11-13T11:59:22.408Z,12.02
2022-11-13T12:01:51.917Z,13.95
2022-11-13T12:04:58.299Z,15.50
2022-11-13T12:07:40.923Z,12.63
2022-11-13T12:10:19.770Z,13.13
2022-11-13T12:13:02.872Z,12.55
2022-11-13T12:16:00.352Z,13.50
2022-11-13T12:18:45.261Z,12.20
2022-11-13T12:21:27.830Z,16.45
2022-11-13T12:24:15.134Z,12.23
2022-11-13T12:26:52.035Z,14.65
2022-11-13T12:29:48.548Z,15.45
2022-11-13T12:32:39.372Z,13.65
2022-11-13T12:35:19.807Z,13.70
2022-11-13T12:38:05.864Z,12.80
2022-11-13T12:41:02.435Z,13.65
2022-11-13T12:44:19.727Z,12.93
2022-11-13T12:46:49.655Z,13.82
2022-11-13T12:49:39.222Z,12.98
2022-11-13T12:52:20.578Z,13.90
2022-11-13T12:54:50.441Z,12.65
2022-11-13T12:57:27.270Z,12.88
2022-11-13T12:59:58.953Z,14.02
2022-11-13T13:02:49.402Z,12.02
2022-11-13T13:05:31.586Z,12.63
2022-11-13T13:08:22.073Z,14.18
2022-11-13T13:11:04.390Z,15.38
2022-11-13T13:13:40.054Z,12.10
2022-11-13T13:16:08.770Z,11.73
2022-11-13T13:18:37.845Z,13.35
2022-11-13T13:21:10.454Z,12.65
2022-11-13T13:23:45.928Z,12.40
2022-11-13T13:26:21.999Z,13.00
2022-11-13T13:28:53.825Z,13.50
2022-11-13T13:31:29.391Z,13.23
2022-11-13T13:34:35.548Z,13.85
2022-11-13T13:37:24.744Z,15.02
2022-11-13T13:40:08.785Z,12.50
2022-11-13T13:42:41.386Z,12.40
2022-11-13T13:45:48.346Z,13.40
2022-11-13T13:48:21.539Z,16.38
2022-11-13T13:50:50.358Z,13.13
2022-11-13T13:53:25.983Z,13.70
2022-11-13T13:55:56.426Z,14.30
2022-11-13T13:58:28.307Z,13.05
2022-11-13T14:01:22.973Z,14.82
2022-11-13T14:03:51.906Z,12.10
2022-11-13T14:06:24.485Z,12.55
2022-11-13T14:08:56.636Z,13.82
2022-11-13T14:11:29.800Z,14.18
2022-11-13T14:14:07.949Z,12.23
2022-11-13T14:16:36.854Z,13.52
2022-11-13T14:19:07.289Z,13.00
2022-11-13T14:21:34.161Z,12.93
2022-11-13T14:24:02.538Z,13.23
2022-11-13T14:26:29.991Z,14.43
2022-11-13T14:28:59.843Z,13.25
2022-11-13T14:31:35.485Z,14.73
2022-11-13T14:34:12.991Z,13.43
2022-11-13T14:36:40.813Z,13.23
2022-11-13T14:39:20.594Z,14.07
2022-11-13T14:41:52.208Z,13.00
2022-11-13T14:47:04.187Z,12.63
2022-11-13T14:49:35.948Z,12.32
2022-11-13T14:52:03.168Z,12.35
2022-11-13T14:55:08.179Z,13.77
2022-11-13T14:57:24.922Z,15.40
2022-11-13T14:59:57.594Z,16.17
2022-11-13T15:02:29.856Z,16.25
2022-11-13T15:05:01.327Z,14.05
2022-11-13T15:07:40.030Z,14.55
2022-11-13T15:10:11.502Z,14.32
2022-11-13T15:12:38.586Z,13.25
2022-11-13T15:15:05.877Z,14.27
2022-11-13T15:17:32.970Z,13.00
2022-11-13T15:20:09.600Z,13.60
2022-11-13T15:22:39.984Z,14.70
2022-11-13T15:25:15.981Z,15.43
2022-11-13T15:27:43.544Z,16.05
2022-11-13T15:30:11.450Z,16.05
2022-11-13T15:32:38.337Z,14.45
2022-11-13T15:35:09.184Z,14.68
2022-11-13T15:37:35.917Z,13.40
2022-11-13T15:40:03.648Z,15.70
2022-11-13T15:42:34.662Z,14.05
2022-11-13T15:45:02.897Z,13.18
2022-11-13T15:47:35.460Z,16.17
2022-11-13T15:50:19.669Z,15.35
2022-11-13T15:52:50.150Z,16.45
2022-11-13T15:55:29.938Z,14.80
2022-11-13T15:57:59.733Z,13.82
2022-11-13T16:00:28.143Z,14.93
2022-11-13T16:02:57.756Z,14.02
2022-11-13T16:05:29.435Z,13.95
2022-11-13T16:08:01.459Z,14.98
2022-11-13T16:10:28.424Z,14.77
2022-11-13T16:12:55.506Z,15.30
2022-11-13T16:15:22.383Z,14.63
2022-11-13T16:17:55.019Z,13.88
2022-11-13T16:20:23.916Z,16.88
2022-11-13T16:22:50.757Z,13.88
2022-11-13T16:25:22.691Z,13.50
2022-11-13T16:27:49.428Z,14.98
2022-11-13T16:30:21.192Z,14.85
2022-11-13T16:32:48.316Z,15.23
2022-11-13T16:35:20.530Z,16.25
2022-11-13T16:37:47.720Z,17.45
2022-11-13T16:40:26.198Z,17.20
2022-11-13T16:42:53.695Z,15.50
2022-11-13T16:45:23.584Z,17.00
2022-11-13T16:47:53.002Z,15.93
2022-11-13T16:50:28.033Z,16.75
2022-11-13T16:52:56.894Z,15.88
2022-11-13T16:55:24.173Z,15.40
2022-11-13T16:57:53.080Z,15.63
2022-11-13T17:00:20.517Z,17.05
2022-11-13T17:02:51.371Z,18.23
2022-11-13T17:05:19.044Z,18.00
2022-11-13T17:07:46.006Z,20.98
2022-11-13T17:10:31.481Z,16.90
2022-11-13T17:13:01.517Z,17.48
2022-11-13T17:15:29.334Z,16.48
2022-11-13T17:18:01.369Z,15.55
2022-11-13T17:20:30.747Z,18.35
2022-11-13T17:22:57.541Z,18.33
2022-11-13T17:25:26.797Z,20.77
2022-11-13T17:27:53.670Z,17.85
2022-11-13T17:30:22.977Z,18.23
2022-11-13T17:32:52.075Z,23.55
2022-11-13T17:35:18.783Z,18.70
2022-11-13T17:37:47.687Z,19.50
2022-11-13T17:40:22.617Z,19.55
2022-11-13T17:42:52.023Z,19.48
2022-11-13T17:45:23.917Z,19.88
2022-11-13T17:47:56.422Z,19.02
2022-11-13T17:50:26.187Z,21.33
2022-11-13T17:52:55.803Z,23.10
2022-11-13T17:55:27.862Z,23.58
2022-11-13T17:58:01.082Z,21.60
2022-11-13T18:00:35.872Z,21.33
2022-11-13T18:03:02.625Z,23.73
2022-11-13T18:05:32.026Z,27.05
2022-11-13T18:08:05.959Z,28.23
2022-11-13T18:10:33.730Z,43.83
2022-11-13T18:13:06.060Z,33.92
2022-11-13T18:15:37.139Z,28.02
2022-11-13T18:18:08.006Z,25.05
2022-11-13T18:20:35.473Z,23.40
2022-11-13T18:23:05.203Z,24.98
2022-11-13T18:25:39.713Z,22.88
2022-11-13T18:28:06.686Z,23.40
2022-11-13T18:30:37.223Z,23.65
2022-11-13T18:33:06.205Z,25.13
2022-11-13T18:35:35.596Z,32.50
2022-11-13T18:38:04.536Z,37.20
2022-11-13T18:40:33.436Z,34.30
2022-11-13T18:43:02.431Z,35.75
2022-11-13T18:45:31.671Z,39.72
2022-11-13T18:47:58.397Z,35.97
2022-11-13T18:50:30.748Z,38.78
2022-11-13T18:53:00.560Z,40.20
2022-11-13T18:55:29.878Z,39.60
2022-11-13T18:57:59.636Z,39.90
2022-11-13T19:00:26.541Z,40.13
2022-11-13T19:02:58.455Z,38.10
2022-11-13T19:05:28.278Z,42.83
2022-11-13T19:07:57.606Z,38.15
2022-11-13T19:10:27.477Z,35.60
2022-11-13T19:12:54.220Z,35.47
2022-11-13T19:15:21.212Z,36.28
2022-11-13T19:17:52.821Z,33.53
2022-11-13T19:20:22.085Z,33.20
2022-11-13T19:22:54.459Z,33.40
2022-11-13T19:25:21.234Z,30.75
2022-11-13T19:27:50.868Z,28.25
2022-11-13T19:30:23.440Z,34.13
2022-11-13T19:32:55.612Z,30.90
2022-11-13T19:35:28.494Z,34.50
2022-11-13T19:38:02.365Z,34.88
2022-11-13T19:40:33.850Z,31.55
2022-11-13T19:43:06.339Z,32.30
2022-11-13T19:45:38.448Z,32.08
2022-11-13T19:48:07.886Z,40.22
2022-11-13T19:50:41.037Z,36.03
2022-11-13T19:53:09.931Z,31.73
2022-11-13T19:55:41.381Z,36.75
2022-11-13T19:58:15.914Z,40.13
2022-11-13T20:00:45.715Z,34.63
2022-11-13T20:03:17.082Z,33.65
2022-11-13T20:05:49.043Z,33.38
2022-11-13T20:08:18.972Z,35.13
2022-11-13T20:10:45.782Z,30.13
2022-11-13T20:13:17.250Z,30.80
2022-11-13T20:15:44.212Z,28.70
2022-11-13T20:18:14.338Z,32.90
2022-11-13T20:20:49.197Z,30.65
2022-11-13T20:23:23.530Z,37.17
2022-11-13T20:26:03.692Z,40.65
2022-11-13T20:28:33.114Z,41.30
2022-11-13T20:31:14.187Z,38.17
2022-11-13T20:33:45.533Z,40.23
2022-11-13T20:36:18.024Z,52.33
2022-11-13T20:38:50.515Z,45.25
2022-11-13T20:41:20.392Z,46.28
2022-11-13T20:43:53.858Z,43.53
2022-11-13T20:46:21.532Z,37.17
2022-11-13T20:48:51.313Z,38.35
2022-11-13T20:51:20.823Z,35.75
2022-11-13T20:53:48.391Z,38.95
2022-11-13T20:56:22.043Z,44.05
2022-11-13T20:58:51.470Z,38.75
2022-11-13T21:01:27.578Z,41.08
2022-11-13T21:03:59.491Z,39.80
2022-11-13T21:06:33.928Z,36.78
2022-11-13T21:09:03.829Z,35.35
2022-11-13T21:11:33.328Z,34.22
2022-11-13T21:14:06.542Z,31.38
2022-11-13T21:16:36.976Z,33.25
2022-11-13T21:19:03.760Z,31.30
2022-11-13T21:21:32.987Z,27.83
2022-11-13T21:24:01.855Z,26.23
2022-11-13T21:26:28.971Z,26.65
2022-11-13T21:28:56.652Z,25.73
2022-11-13T21:31:23.719Z,25.38
2022-11-13T21:33:51.015Z,27.42
2022-11-13T21:36:23.931Z,24.42
2022-11-13T21:38:55.207Z,24.10
2022-11-13T21:41:26.872Z,25.23
2022-11-13T21:46:33.427Z,28.35
2022-11-13T21:49:07.131Z,28.50
2022-11-13T21:51:35.508Z,34.15
2022-11-13T21:54:07.670Z,36.45
2022-11-13T21:56:36.373Z,37.25
2022-11-13T21:59:06.005Z,31.25
2022-11-13T22:01:38.661Z,38.10
2022-11-13T22:04:06.672Z,35.72
2022-11-13T22:06:37.628Z,30.70
2022-11-13T22:09:13.022Z,30.00
2022-11-13T22:11:42.881Z,25.00
2022-11-13T22:14:09.826Z,22.92
2022-11-13T22:16:39.433Z,28.17
2022-11-13T22:19:22.676Z,24.67
2022-11-13T22:21:54.298Z,26.60
2022-11-13T22:24:24.282Z,25.55
2022-11-13T22:26:53.479Z,24.33
2022-11-13T22:29:22.355Z,23.40
2022-11-13T22:31:51.293Z,24.17
2022-11-13T22:34:20.324Z,22.95
2022-11-13T22:36:47.100Z,25.15
2022-11-13T22:39:13.825Z,23.70
2022-11-13T22:41:43.005Z,26.92
2022-11-13T22:44:13.143Z,26.08
2022-11-13T22:46:42.323Z,23.67
2022-11-13T22:49:12.292Z,23.13
2022-11-13T22:51:42.796Z,25.40
2022-11-13T22:54:11.493Z,24.92
2022-11-13T22:56:39.799Z,24.17
2022-11-13T22:59:09.427Z,22.95
2022-11-13T23:01:40.257Z,24.88
2022-11-13T23:04:13.278Z,26.35
2022-11-13T23:06:43.222Z,26.13
2022-11-13T23:09:10.635Z,23.88
2022-11-13T23:11:39.582Z,25.33
2022-11-13T23:14:13.029Z,26.35
2022-11-13T23:16:39.863Z,27.67
2022-11-13T23:19:07.006Z,27.73
2022-11-13T23:21:36.032Z,24.58
2022-11-13T23:24:05.451Z,28.45
2022-11-13T23:26:34.397Z,27.70
2022-11-13T23:29:04.163Z,27.63
2022-11-13T23:31:33.807Z,26.55
2022-11-13T23:34:02.768Z,27.15
2022-11-13T23:36:32.186Z,26.63
2022-11-13T23:38:58.971Z,26.98
2022-11-13T23:41:27.949Z,27.30
2022-11-13T23:44:12.569Z,29.77
2022-11-13T23:46:43.352Z,28.25
2022-11-13T23:49:10.139Z,29.08
2022-11-13T23:51:39.047Z,31.70
2022-11-13T23:54:05.930Z,27.77
2022-11-13T23:56:34.864Z,28.77
2022-11-13T23:59:04.115Z,26.73
